sensor_id;sensor_type;location;lat;lon;timestamp;pressure;altitude;pressure_sealevel;temperature;humidity
75886;BME280;64561;44.018;10.144;2024-01-16T00:02:07;100319.72;;;7.44;100.00
75886;BME280;64561;44.018;10.144;2024-01-16T00:04:37;100315.34;;;7.40;100.00
75886;BME280;64561;44.018;10.144;2024-01-16T00:07:04;100318.78;;;7.40;100.00
75886;BME280;64561;44.018;10.144;2024-01-16T00:09:35;100320.78;;;7.52;100.00
75886;BME280;64561;44.018;10.144;2024-01-16T00:12:03;100327.53;;;7.50;100.00
75886;BME280;64561;44.018;10.144;2024-01-16T00:14:35;100324.69;;;7.39;100.00
75886;BME280;64561;44.018;10.144;2024-01-16T00:17:02;100325.50;;;7.38;100.00
75886;BME280;64561;44.018;10.144;2024-01-16T00:19:30;100329.81;;;7.41;100.00
75886;BME280;64561;44.018;10.144;2024-01-16T00:21:57;100331.59;;;7.43;100.00
75886;BME280;64561;44.018;10.144;2024-01-16T00:24:24;100337.53;;;7.44;100.00
75886;BME280;64561;44.018;10.144;2024-01-16T00:26:51;100332.31;;;7.39;100.00
75886;BME280;64561;44.018;10.144;2024-01-16T00:29:19;100338.16;;;7.37;100.00
75886;BME280;64561;44.018;10.144;2024-01-16T00:31:46;100338.59;;;7.22;100.00
75886;BME280;64561;44.018;10.144;2024-01-16T00:34:13;100353.84;;;7.22;100.00
75886;BME280;64561;44.018;10.144;2024-01-16T00:36:41;100356.31;;;7.19;100.00
75886;BME280;64561;44.018;10.144;2024-01-16T00:39:08;100350.34;;;7.17;100.00
75886;BME280;64561;44.018;10.144;2024-01-16T00:41:36;100352.03;;;7.18;100.00
75886;BME280;64561;44.018;10.144;2024-01-16T00:44:03;100356.94;;;7.10;100.00
75886;BME280;64561;44.018;10.144;2024-01-16T00:46:31;100356.75;;;7.05;100.00
75886;BME280;64561;44.018;10.144;2024-01-16T00:48:58;100364.97;;;6.97;100.00
75886;BME280;64561;44.018;10.144;2024-01-16T00:51:25;100364.25;;;7.01;100.00
75886;BME280;64561;44.018;10.144;2024-01-16T00:53:52;100377.13;;;7.05;100.00
75886;BME280;64561;44.018;10.144;2024-01-16T00:56:20;100375.59;;;7.10;100.00
75886;BME280;64561;44.018;10.144;2024-01-16T00:58:47;100376.44;;;7.11;100.00
75886;BME280;64561;44.018;10.144;2024-01-16T01:01:14;100385.56;;;7.04;100.00
75886;BME280;64561;44.018;10.144;2024-01-16T01:03:41;100388.72;;;6.97;100.00
75886;BME280;64561;44.018;10.144;2024-01-16T01:06:09;100384.31;;;6.92;100.00
75886;BME280;64561;44.018;10.144;2024-01-16T01:08:36;100388.44;;;6.88;100.00
75886;BME280;64561;44.018;10.144;2024-01-16T01:11:03;100393.59;;;6.90;100.00
75886;BME280;64561;44.018;10.144;2024-01-16T01:13:31;100383.34;;;6.88;100.00
75886;BME280;64561;44.018;10.144;2024-01-16T01:15:58;100393.59;;;6.90;100.00
75886;BME280;64561;44.018;10.144;2024-01-16T01:18:25;100393.81;;;6.97;100.00
75886;BME280;64561;44.018;10.144;2024-01-16T01:20:53;100394.75;;;7.01;100.00
75886;BME280;64561;44.018;10.144;2024-01-16T01:23:20;100396.50;;;7.02;100.00
75886;BME280;64561;44.018;10.144;2024-01-16T01:25:47;100408.31;;;7.00;100.00
75886;BME280;64561;44.018;10.144;2024-01-16T01:28:14;100407.44;;;6.99;100.00
75886;BME280;64561;44.018;10.144;2024-01-16T01:30:41;100399.34;;;7.11;100.00
75886;BME280;64561;44.018;10.144;2024-01-16T01:33:09;100402.25;;;7.23;100.00
75886;BME280;64561;44.018;10.144;2024-01-16T01:35:36;100399.91;;;7.29;100.00
75886;BME280;64561;44.018;10.144;2024-01-16T01:38:03;100396.50;;;7.29;100.00
75886;BME280;64561;44.018;10.144;2024-01-16T01:40:31;100404.22;;;7.32;100.00
75886;BME280;64561;44.018;10.144;2024-01-16T01:42:58;100404.44;;;7.40;100.00
75886;BME280;64561;44.018;10.144;2024-01-16T01:45:43;100405.69;;;7.52;100.00
75886;BME280;64561;44.018;10.144;2024-01-16T01:48:10;100412.50;;;7.55;100.00
75886;BME280;64561;44.018;10.144;2024-01-16T01:50:37;100420.16;;;7.55;100.00
75886;BME280;64561;44.018;10.144;2024-01-16T01:53:05;100408.22;;;7.52;100.00
75886;BME280;64561;44.018;10.144;2024-01-16T01:55:33;100423.44;;;7.51;100.00
75886;BME280;64561;44.018;10.144;2024-01-16T01:58:01;100427.59;;;7.49;100.00
75886;BME280;64561;44.018;10.144;2024-01-16T02:00:31;100427.50;;;7.44;100.00
75886;BME280;64561;44.018;10.144;2024-01-16T02:02:59;100427.88;;;7.29;100.00
75886;BME280;64561;44.018;10.144;2024-01-16T02:05:27;100425.28;;;7.28;100.00
75886;BME280;64561;44.018;10.144;2024-01-16T02:07:56;100433.44;;;7.16;100.00
75886;BME280;64561;44.018;10.144;2024-01-16T02:10:23;100448.44;;;7.08;100.00
75886;BME280;64561;44.018;10.144;2024-01-16T02:12:51;100450.81;;;7.04;100.00
75886;BME280;64561;44.018;10.144;2024-01-16T02:15:18;100448.19;;;7.01;100.00
75886;BME280;64561;44.018;10.144;2024-01-16T02:17:47;100446.44;;;6.98;100.00
75886;BME280;64561;44.018;10.144;2024-01-16T02:20:34;100433.63;;;6.95;100.00
75886;BME280;64561;44.018;10.144;2024-01-16T02:23:03;100437.03;;;6.96;100.00
75886;BME280;64561;44.018;10.144;2024-01-16T02:25:30;100436.19;;;6.97;100.00
75886;BME280;64561;44.018;10.144;2024-01-16T02:27:59;100433.75;;;7.00;100.00
75886;BME280;64561;44.018;10.144;2024-01-16T02:30:27;100427.84;;;7.01;100.00
75886;BME280;64561;44.018;10.144;2024-01-16T02:32:54;100428.84;;;7.06;100.00
75886;BME280;64561;44.018;10.144;2024-01-16T02:35:21;100440.13;;;7.14;100.00
75886;BME280;64561;44.018;10.144;2024-01-16T02:37:49;100438.53;;;6.91;100.00
75886;BME280;64561;44.018;10.144;2024-01-16T02:40:16;100435.13;;;6.90;100.00
75886;BME280;64561;44.018;10.144;2024-01-16T02:42:44;100430.44;;;6.77;100.00
75886;BME280;64561;44.018;10.144;2024-01-16T02:45:12;100441.81;;;6.86;100.00
75886;BME280;64561;44.018;10.144;2024-01-16T02:47:39;100438.72;;;6.97;100.00
75886;BME280;64561;44.018;10.144;2024-01-16T02:50:07;100443.50;;;7.13;100.00
75886;BME280;64561;44.018;10.144;2024-01-16T02:52:36;100451.84;;;7.09;100.00
75886;BME280;64561;44.018;10.144;2024-01-16T02:55:04;100438.16;;;7.05;100.00
75886;BME280;64561;44.018;10.144;2024-01-16T02:57:31;100438.09;;;7.04;100.00
75886;BME280;64561;44.018;10.144;2024-01-16T02:59:58;100444.13;;;7.06;100.00
75886;BME280;64561;44.018;10.144;2024-01-16T03:02:26;100451.75;;;7.06;100.00
75886;BME280;64561;44.018;10.144;2024-01-16T03:04:53;100451.53;;;7.00;100.00
75886;BME280;64561;44.018;10.144;2024-01-16T03:07:20;100458.25;;;6.98;100.00
75886;BME280;64561;44.018;10.144;2024-01-16T03:09:47;100454.34;;;6.82;100.00
75886;BME280;64561;44.018;10.144;2024-01-16T03:12:14;100461.34;;;6.62;100.00
75886;BME280;64561;44.018;10.144;2024-01-16T03:14:41;100457.97;;;6.63;100.00
75886;BME280;64561;44.018;10.144;2024-01-16T03:17:09;100462.34;;;6.67;100.00
75886;BME280;64561;44.018;10.144;2024-01-16T03:19:36;100457.13;;;6.62;100.00
75886;BME280;64561;44.018;10.144;2024-01-16T03:22:04;100458.06;;;6.66;100.00
75886;BME280;64561;44.018;10.144;2024-01-16T03:24:31;100470.28;;;6.76;100.00
75886;BME280;64561;44.018;10.144;2024-01-16T03:26:58;100479.69;;;6.79;100.00
75886;BME280;64561;44.018;10.144;2024-01-16T03:29:26;100485.53;;;6.76;100.00
75886;BME280;64561;44.018;10.144;2024-01-16T03:31:53;100493.22;;;6.78;100.00
75886;BME280;64561;44.018;10.144;2024-01-16T03:34:20;100492.47;;;6.80;100.00
75886;BME280;64561;44.018;10.144;2024-01-16T03:36:47;100504.41;;;6.83;100.00
75886;BME280;64561;44.018;10.144;2024-01-16T03:39:15;100503.63;;;6.85;100.00
75886;BME280;64561;44.018;10.144;2024-01-16T03:41:42;100497.78;;;6.88;100.00
75886;BME280;64561;44.018;10.144;2024-01-16T03:44:10;100495.31;;;6.90;100.00
75886;BME280;64561;44.018;10.144;2024-01-16T03:46:37;100489.59;;;6.97;100.00
75886;BME280;64561;44.018;10.144;2024-01-16T03:49:04;100501.81;;;7.07;100.00
75886;BME280;64561;44.018;10.144;2024-01-16T03:51:32;100501.13;;;7.13;100.00
75886;BME280;64561;44.018;10.144;2024-01-16T03:53:59;100496.13;;;7.16;100.00
75886;BME280;64561;44.018;10.144;2024-01-16T03:56:26;100502.16;;;7.18;100.00
75886;BME280;64561;44.018;10.144;2024-01-16T03:58:53;100504.97;;;7.25;100.00
75886;BME280;64561;44.018;10.144;2024-01-16T04:01:33;100505.09;;;7.30;100.00
75886;BME280;64561;44.018;10.144;2024-01-16T04:04:04;100499.97;;;7.28;100.00
75886;BME280;64561;44.018;10.144;2024-01-16T04:06:34;100498.88;;;7.22;100.00
75886;BME280;64561;44.018;10.144;2024-01-16T04:09:02;100505.66;;;7.21;100.00
75886;BME280;64561;44.018;10.144;2024-01-16T04:11:29;100518.44;;;7.23;100.00
75886;BME280;64561;44.018;10.144;2024-01-16T04:13:57;100509.16;;;7.25;100.00
75886;BME280;64561;44.018;10.144;2024-01-16T04:16:24;100515.16;;;7.27;100.00
75886;BME280;64561;44.018;10.144;2024-01-16T04:18:51;100508.25;;;7.23;100.00
75886;BME280;64561;44.018;10.144;2024-01-16T04:21:19;100503.13;;;7.21;100.00
75886;BME280;64561;44.018;10.144;2024-01-16T04:23:46;100509.22;;;7.26;100.00
75886;BME280;64561;44.018;10.144;2024-01-16T04:26:14;100506.63;;;7.25;100.00
75886;BME280;64561;44.018;10.144;2024-01-16T04:28:42;100519.13;;;7.19;100.00
75886;BME280;64561;44.018;10.144;2024-01-16T04:31:11;100528.31;;;7.14;100.00
75886;BME280;64561;44.018;10.144;2024-01-16T04:33:40;100530.91;;;7.15;100.00
75886;BME280;64561;44.018;10.144;2024-01-16T04:36:07;100525.81;;;7.15;100.00
75886;BME280;64561;44.018;10.144;2024-01-16T04:38:34;100528.34;;;7.15;100.00
75886;BME280;64561;44.018;10.144;2024-01-16T04:41:02;100535.03;;;7.12;100.00
75886;BME280;64561;44.018;10.144;2024-01-16T04:43:30;100535.78;;;7.09;100.00
75886;BME280;64561;44.018;10.144;2024-01-16T04:45:57;100537.69;;;7.15;100.00
75886;BME280;64561;44.018;10.144;2024-01-16T04:48:29;100533.41;;;7.14;100.00
75886;BME280;64561;44.018;10.144;2024-01-16T04:50:56;100521.56;;;7.14;100.00
75886;BME280;64561;44.018;10.144;2024-01-16T04:53:24;100514.97;;;7.21;100.00
75886;BME280;64561;44.018;10.144;2024-01-16T04:55:51;100514.50;;;7.32;100.00
75886;BME280;64561;44.018;10.144;2024-01-16T04:58:18;100522.69;;;7.49;100.00
75886;BME280;64561;44.018;10.144;2024-01-16T05:00:45;100526.00;;;7.47;100.00
75886;BME280;64561;44.018;10.144;2024-01-16T05:03:14;100531.78;;;7.43;100.00
75886;BME280;64561;44.018;10.144;2024-01-16T05:05:41;100521.22;;;7.30;100.00
75886;BME280;64561;44.018;10.144;2024-01-16T05:08:09;100533.84;;;7.27;100.00
75886;BME280;64561;44.018;10.144;2024-01-16T05:10:36;100537.16;;;7.25;100.00
75886;BME280;64561;44.018;10.144;2024-01-16T05:13:03;100544.44;;;7.14;100.00
75886;BME280;64561;44.018;10.144;2024-01-16T05:15:31;100538.34;;;7.09;100.00
75886;BME280;64561;44.018;10.144;2024-01-16T05:17:58;100546.06;;;7.12;100.00
75886;BME280;64561;44.018;10.144;2024-01-16T05:20:26;100544.69;;;7.22;100.00
75886;BME280;64561;44.018;10.144;2024-01-16T05:22:53;100547.19;;;7.20;100.00
75886;BME280;64561;44.018;10.144;2024-01-16T05:25:21;100549.75;;;7.20;100.00
75886;BME280;64561;44.018;10.144;2024-01-16T05:27:52;100554.09;;;7.24;100.00
75886;BME280;64561;44.018;10.144;2024-01-16T05:30:19;100553.00;;;7.16;100.00
75886;BME280;64561;44.018;10.144;2024-01-16T05:32:46;100554.53;;;7.11;100.00
75886;BME280;64561;44.018;10.144;2024-01-16T05:35:14;100550.66;;;6.97;100.00
75886;BME280;64561;44.018;10.144;2024-01-16T05:37:41;100557.56;;;7.01;100.00
75886;BME280;64561;44.018;10.144;2024-01-16T05:40:08;100554.81;;;6.95;100.00
75886;BME280;64561;44.018;10.144;2024-01-16T05:42:37;100553.72;;;6.88;100.00
75886;BME280;64561;44.018;10.144;2024-01-16T05:45:04;100548.72;;;6.90;100.00
75886;BME280;64561;44.018;10.144;2024-01-16T05:47:32;100529.53;;;6.99;100.00
75886;BME280;64561;44.018;10.144;2024-01-16T05:49:59;100530.69;;;7.09;100.00
75886;BME280;64561;44.018;10.144;2024-01-16T05:52:27;100530.81;;;7.12;100.00
75886;BME280;64561;44.018;10.144;2024-01-16T05:54:54;100536.09;;;7.18;100.00
75886;BME280;64561;44.018;10.144;2024-01-16T05:57:24;100535.41;;;7.22;100.00
75886;BME280;64561;44.018;10.144;2024-01-16T05:59:51;100543.13;;;7.25;100.00
75886;BME280;64561;44.018;10.144;2024-01-16T06:02:18;100563.88;;;7.38;100.00
75886;BME280;64561;44.018;10.144;2024-01-16T06:04:46;100569.09;;;7.42;100.00
75886;BME280;64561;44.018;10.144;2024-01-16T06:07:13;100560.25;;;7.31;100.00
75886;BME280;64561;44.018;10.144;2024-01-16T06:09:41;100560.78;;;7.21;100.00
75886;BME280;64561;44.018;10.144;2024-01-16T06:12:08;100560.75;;;7.19;100.00
75886;BME280;64561;44.018;10.144;2024-01-16T06:14:35;100563.28;;;7.19;100.00
75886;BME280;64561;44.018;10.144;2024-01-16T06:17:03;100564.19;;;7.21;100.00
75886;BME280;64561;44.018;10.144;2024-01-16T06:19:32;100571.91;;;7.24;100.00
75886;BME280;64561;44.018;10.144;2024-01-16T06:22:00;100565.09;;;7.23;100.00
75886;BME280;64561;44.018;10.144;2024-01-16T06:24:27;100567.75;;;7.26;100.00
75886;BME280;64561;44.018;10.144;2024-01-16T06:26:55;100573.91;;;7.33;100.00
75886;BME280;64561;44.018;10.144;2024-01-16T06:29:22;100569.25;;;7.21;100.00
75886;BME280;64561;44.018;10.144;2024-01-16T06:32:01;100565.41;;;7.07;100.00
75886;BME280;64561;44.018;10.144;2024-01-16T06:34:28;100571.72;;;6.93;100.00
75886;BME280;64561;44.018;10.144;2024-01-16T06:36:57;100578.28;;;6.86;100.00
75886;BME280;64561;44.018;10.144;2024-01-16T06:39:24;100577.16;;;6.79;100.00
75886;BME280;64561;44.018;10.144;2024-01-16T06:41:51;100571.06;;;6.74;100.00
75886;BME280;64561;44.018;10.144;2024-01-16T06:44:21;100570.97;;;6.71;100.00
75886;BME280;64561;44.018;10.144;2024-01-16T06:46:48;100568.44;;;6.71;100.00
75886;BME280;64561;44.018;10.144;2024-01-16T06:49:15;100578.00;;;6.78;100.00
75886;BME280;64561;44.018;10.144;2024-01-16T06:51:42;100578.09;;;6.81;100.00
75886;BME280;64561;44.018;10.144;2024-01-16T06:54:09;100590.81;;;6.81;100.00
75886;BME280;64561;44.018;10.144;2024-01-16T06:56:36;100593.84;;;6.71;100.00
75886;BME280;64561;44.018;10.144;2024-01-16T06:59:04;100601.53;;;6.73;100.00
75886;BME280;64561;44.018;10.144;2024-01-16T07:01:38;100609.22;;;6.74;100.00
75886;BME280;64561;44.018;10.144;2024-01-16T07:04:05;100610.06;;;6.75;100.00
75886;BME280;64561;44.018;10.144;2024-01-16T07:06:32;100618.66;;;6.78;100.00
75886;BME280;64561;44.018;10.144;2024-01-16T07:09:00;100627.06;;;6.76;100.00
75886;BME280;64561;44.018;10.144;2024-01-16T07:11:27;100640.59;;;6.75;100.00
75886;BME280;64561;44.018;10.144;2024-01-16T07:13:54;100638.19;;;6.79;100.00
75886;BME280;64561;44.018;10.144;2024-01-16T07:16:21;100639.06;;;6.80;100.00
75886;BME280;64561;44.018;10.144;2024-01-16T07:18:50;100645.78;;;6.78;100.00
75886;BME280;64561;44.018;10.144;2024-01-16T07:21:20;100648.53;;;6.84;100.00
75886;BME280;64561;44.018;10.144;2024-01-16T07:23:48;100643.56;;;6.87;100.00
75886;BME280;64561;44.018;10.144;2024-01-16T07:26:16;100652.13;;;6.89;100.00
75886;BME280;64561;44.018;10.144;2024-01-16T07:28:43;100646.31;;;6.93;100.00
75886;BME280;64561;44.018;10.144;2024-01-16T07:31:11;100655.41;;;7.10;100.00
75886;BME280;64561;44.018;10.144;2024-01-16T07:33:38;100658.22;;;7.18;100.00
75886;BME280;64561;44.018;10.144;2024-01-16T07:36:08;100665.28;;;7.25;100.00
75886;BME280;64561;44.018;10.144;2024-01-16T07:38:35;100676.88;;;7.43;100.00
75886;BME280;64561;44.018;10.144;2024-01-16T07:41:04;100681.22;;;7.71;100.00
75886;BME280;64561;44.018;10.144;2024-01-16T07:43:32;100678.66;;;7.96;100.00
75886;BME280;64561;44.018;10.144;2024-01-16T07:45:59;100684.66;;;8.25;100.00
75886;BME280;64561;44.018;10.144;2024-01-16T07:48:27;100692.22;;;8.50;100.00
75886;BME280;64561;44.018;10.144;2024-01-16T07:50:54;100698.81;;;8.72;100.00
75886;BME280;64561;44.018;10.144;2024-01-16T07:53:21;100694.06;;;8.84;100.00
75886;BME280;64561;44.018;10.144;2024-01-16T07:55:48;100690.13;;;8.93;100.00
75886;BME280;64561;44.018;10.144;2024-01-16T07:58:16;100697.72;;;8.92;100.00
75886;BME280;64561;44.018;10.144;2024-01-16T08:00:43;100701.03;;;8.89;100.00
75886;BME280;64561;44.018;10.144;2024-01-16T08:03:10;100702.91;;;8.95;100.00
75886;BME280;64561;44.018;10.144;2024-01-16T08:05:38;100699.34;;;8.90;100.00
75886;BME280;64561;44.018;10.144;2024-01-16T08:08:08;100705.50;;;8.97;100.00
75886;BME280;64561;44.018;10.144;2024-01-16T08:10:36;100704.00;;;9.05;100.00
75886;BME280;64561;44.018;10.144;2024-01-16T08:13:04;100718.09;;;9.21;100.00
75886;BME280;64561;44.018;10.144;2024-01-16T08:15:32;100719.91;;;9.26;100.00
75886;BME280;64561;44.018;10.144;2024-01-16T08:17:59;100729.28;;;9.26;100.00
75886;BME280;64561;44.018;10.144;2024-01-16T08:20:26;100727.56;;;9.25;100.00
75886;BME280;64561;44.018;10.144;2024-01-16T08:22:54;100736.13;;;9.27;100.00
75886;BME280;64561;44.018;10.144;2024-01-16T08:25:21;100734.38;;;9.26;100.00
75886;BME280;64561;44.018;10.144;2024-01-16T08:27:48;100735.22;;;9.25;100.00
75886;BME280;64561;44.018;10.144;2024-01-16T08:30:15;100738.59;;;9.24;100.00
75886;BME280;64561;44.018;10.144;2024-01-16T08:32:42;100736.94;;;9.26;100.00
75886;BME280;64561;44.018;10.144;2024-01-16T08:35:10;100741.31;;;9.30;100.00
75886;BME280;64561;44.018;10.144;2024-01-16T08:37:37;100737.19;;;9.35;100.00
75886;BME280;64561;44.018;10.144;2024-01-16T08:40:04;100737.31;;;9.39;100.00
75886;BME280;64561;44.018;10.144;2024-01-16T08:42:32;100740.13;;;9.49;100.00
75886;BME280;64561;44.018;10.144;2024-01-16T08:44:59;100749.13;;;9.68;100.00
75886;BME280;64561;44.018;10.144;2024-01-16T08:47:29;100764.22;;;9.90;100.00
75886;BME280;64561;44.018;10.144;2024-01-16T08:49:57;100761.31;;;10.11;100.00
75886;BME280;64561;44.018;10.144;2024-01-16T08:52:24;100758.44;;;10.32;100.00
75886;BME280;64561;44.018;10.144;2024-01-16T08:54:51;100757.13;;;10.49;100.00
75886;BME280;64561;44.018;10.144;2024-01-16T08:57:19;100762.63;;;10.66;100.00
75886;BME280;64561;44.018;10.144;2024-01-16T08:59:48;100764.56;;;10.76;100.00
75886;BME280;64561;44.018;10.144;2024-01-16T09:02:15;100768.16;;;10.83;100.00
75886;BME280;64561;44.018;10.144;2024-01-16T09:04:43;100776.03;;;10.94;99.45
75886;BME280;64561;44.018;10.144;2024-01-16T09:07:10;100776.09;;;10.95;98.26
75886;BME280;64561;44.018;10.144;2024-01-16T09:09:38;100777.66;;;10.90;97.78
75886;BME280;64561;44.018;10.144;2024-01-16T09:12:05;100777.47;;;10.81;97.40
75886;BME280;64561;44.018;10.144;2024-01-16T09:14:33;100784.19;;;10.76;97.26
75886;BME280;64561;44.018;10.144;2024-01-16T09:17:00;100780.63;;;10.71;97.58
75886;BME280;64561;44.018;10.144;2024-01-16T09:19:27;100783.19;;;10.69;98.46
75886;BME280;64561;44.018;10.144;2024-01-16T09:21:55;100779.84;;;10.72;96.72
75886;BME280;64561;44.018;10.144;2024-01-16T09:24:22;100784.09;;;10.73;95.61
75886;BME280;64561;44.018;10.144;2024-01-16T09:26:49;100795.34;;;10.80;95.15
75886;BME280;64561;44.018;10.144;2024-01-16T09:29:17;100801.41;;;10.83;96.02
75886;BME280;64561;44.018;10.144;2024-01-16T09:31:44;100792.25;;;10.93;95.64
75886;BME280;64561;44.018;10.144;2024-01-16T09:34:11;100802.56;;;10.97;95.79
75886;BME280;64561;44.018;10.144;2024-01-16T09:36:40;100805.09;;;10.96;96.49
75886;BME280;64561;44.018;10.144;2024-01-16T09:39:07;100803.53;;;11.03;97.64
75886;BME280;64561;44.018;10.144;2024-01-16T09:41:42;100808.00;;;11.13;96.46
75886;BME280;64561;44.018;10.144;2024-01-16T09:44:09;100809.72;;;11.12;96.11
75886;BME280;64561;44.018;10.144;2024-01-16T09:46:37;100808.84;;;11.10;95.79
75886;BME280;64561;44.018;10.144;2024-01-16T09:49:06;100807.94;;;11.08;96.01
75886;BME280;64561;44.018;10.144;2024-01-16T09:51:35;100808.72;;;11.06;96.18
75886;BME280;64561;44.018;10.144;2024-01-16T09:54:02;100811.53;;;11.18;97.02
75886;BME280;64561;44.018;10.144;2024-01-16T09:56:39;100805.69;;;11.24;96.06
75886;BME280;64561;44.018;10.144;2024-01-16T09:59:09;100810.75;;;11.22;95.13
75886;BME280;64561;44.018;10.144;2024-01-16T10:01:37;100809.22;;;11.30;94.98
75886;BME280;64561;44.018;10.144;2024-01-16T10:04:04;100802.50;;;11.35;94.98
75886;BME280;64561;44.018;10.144;2024-01-16T10:06:33;100811.09;;;11.37;95.56
75886;BME280;64561;44.018;10.144;2024-01-16T10:09:01;100806.84;;;11.39;94.62
75886;BME280;64561;44.018;10.144;2024-01-16T10:11:29;100826.75;;;11.51;94.18
75886;BME280;64561;44.018;10.144;2024-01-16T10:13:58;100829.53;;;11.63;93.61
75886;BME280;64561;44.018;10.144;2024-01-16T10:17:00;100821.91;;;11.65;91.99
75886;BME280;64561;44.018;10.144;2024-01-16T10:19:50;100821.06;;;11.66;92.23
75886;BME280;64561;44.018;10.144;2024-01-16T10:22:22;100810.69;;;11.60;92.23
75886;BME280;64561;44.018;10.144;2024-01-16T10:25:12;100810.56;;;11.54;92.38
75886;BME280;64561;44.018;10.144;2024-01-16T10:27:44;100817.41;;;11.53;93.20
75886;BME280;64561;44.018;10.144;2024-01-16T10:30:12;100813.13;;;11.54;92.70
75886;BME280;64561;44.018;10.144;2024-01-16T10:32:41;100813.16;;;11.55;92.48
75886;BME280;64561;44.018;10.144;2024-01-16T10:37:53;100813.47;;;11.72;91.05
75886;BME280;64561;44.018;10.144;2024-01-16T10:40:24;100809.19;;;11.71;89.64
75886;BME280;64561;44.018;10.144;2024-01-16T10:45:26;100805.84;;;11.75;89.63
75886;BME280;64561;44.018;10.144;2024-01-16T10:48:07;100804.13;;;11.76;88.37
75886;BME280;64561;44.018;10.144;2024-01-16T10:50:37;100804.97;;;11.75;87.67
75886;BME280;64561;44.018;10.144;2024-01-16T10:53:07;100810.13;;;11.76;87.86
75886;BME280;64561;44.018;10.144;2024-01-16T10:55:49;100802.53;;;11.79;86.59
75886;BME280;64561;44.018;10.144;2024-01-16T10:58:19;100806.75;;;11.77;86.83
75886;BME280;64561;44.018;10.144;2024-01-16T11:00:51;100813.66;;;11.81;86.75
75886;BME280;64561;44.018;10.144;2024-01-16T11:05:50;100812.34;;;12.02;85.27
75886;BME280;64561;44.018;10.144;2024-01-16T11:08:18;100815.22;;;12.19;85.21
75886;BME280;64561;44.018;10.144;2024-01-16T11:10:47;100812.16;;;12.41;84.53
75886;BME280;64561;44.018;10.144;2024-01-16T11:13:16;100805.50;;;12.52;83.30
75886;BME280;64561;44.018;10.144;2024-01-16T11:15:47;100813.25;;;12.57;82.83
75886;BME280;64561;44.018;10.144;2024-01-16T11:18:16;100817.47;;;12.53;83.37
75886;BME280;64561;44.018;10.144;2024-01-16T11:20:44;100812.38;;;12.55;80.79
75886;BME280;64561;44.018;10.144;2024-01-16T11:23:14;100814.00;;;12.50;81.19
75886;BME280;64561;44.018;10.144;2024-01-16T11:25:42;100820.09;;;12.55;81.83
75886;BME280;64561;44.018;10.144;2024-01-16T11:28:10;100819.38;;;12.65;81.98
75886;BME280;64561;44.018;10.144;2024-01-16T11:30:38;100829.88;;;12.79;79.45
75886;BME280;64561;44.018;10.144;2024-01-16T11:33:06;100808.44;;;12.78;77.03
75886;BME280;64561;44.018;10.144;2024-01-16T11:35:53;100808.59;;;12.88;78.45
75886;BME280;64561;44.018;10.144;2024-01-16T11:38:21;100814.66;;;12.94;78.83
75886;BME280;64561;44.018;10.144;2024-01-16T11:40:48;100810.41;;;12.96;76.17
75886;BME280;64561;44.018;10.144;2024-01-16T11:43:36;100814.81;;;13.05;75.96
75886;BME280;64561;44.018;10.144;2024-01-16T11:46:07;100813.94;;;13.03;75.16
75886;BME280;64561;44.018;10.144;2024-01-16T11:48:35;100793.31;;;12.97;74.16
75886;BME280;64561;44.018;10.144;2024-01-16T11:51:22;100797.44;;;12.87;76.27
75886;BME280;64561;44.018;10.144;2024-01-16T11:53:50;100804.44;;;12.99;78.02
75886;BME280;64561;44.018;10.144;2024-01-16T12:01:50;100795.47;;;13.32;77.81
75886;BME280;64561;44.018;10.144;2024-01-16T12:04:19;100788.63;;;13.32;78.55
75886;BME280;64561;44.018;10.144;2024-01-16T12:06:57;100777.53;;;13.35;77.45
75886;BME280;64561;44.018;10.144;2024-01-16T12:09:26;100782.63;;;13.32;78.47
75886;BME280;64561;44.018;10.144;2024-01-16T12:12:02;100779.13;;;13.26;78.74
75886;BME280;64561;44.018;10.144;2024-01-16T12:14:30;100776.47;;;13.20;77.42
75886;BME280;64561;44.018;10.144;2024-01-16T12:17:13;100779.88;;;13.19;77.41
75886;BME280;64561;44.018;10.144;2024-01-16T12:19:41;100775.00;;;13.36;75.73
75886;BME280;64561;44.018;10.144;2024-01-16T12:22:13;100766.47;;;13.40;75.39
75886;BME280;64561;44.018;10.144;2024-01-16T12:24:41;100755.38;;;13.47;75.15
75886;BME280;64561;44.018;10.144;2024-01-16T12:27:08;100753.75;;;13.53;76.02
75886;BME280;64561;44.018;10.144;2024-01-16T12:29:35;100756.44;;;13.63;74.82
75886;BME280;64561;44.018;10.144;2024-01-16T12:32:12;100736.81;;;13.73;72.22
75886;BME280;64561;44.018;10.144;2024-01-16T12:34:47;100747.94;;;13.73;70.47
75886;BME280;64561;44.018;10.144;2024-01-16T12:37:16;100735.00;;;13.64;71.57
75886;BME280;64561;44.018;10.144;2024-01-16T12:39:44;100734.97;;;13.61;70.85
75886;BME280;64561;44.018;10.144;2024-01-16T12:42:11;100737.66;;;13.73;69.20
75886;BME280;64561;44.018;10.144;2024-01-16T12:44:39;100727.38;;;13.72;67.43
75886;BME280;64561;44.018;10.144;2024-01-16T12:47:07;100729.03;;;13.67;69.37
75886;BME280;64561;44.018;10.144;2024-01-16T12:49:42;100731.63;;;13.70;69.25
75886;BME280;64561;44.018;10.144;2024-01-16T12:52:22;100721.41;;;13.76;69.52
75886;BME280;64561;44.018;10.144;2024-01-16T12:54:59;100724.81;;;13.72;68.22
75886;BME280;64561;44.018;10.144;2024-01-16T12:57:30;100727.41;;;13.75;66.60
75886;BME280;64561;44.018;10.144;2024-01-16T12:59:57;100716.22;;;13.71;64.23
75886;BME280;64561;44.018;10.144;2024-01-16T13:02:30;100716.19;;;13.67;65.19